Marion, Montana
Current Conditions -  °F | °C
As of 1:55 AM on Wednesday 22 Oct 2014 (Local Time) from KGPI Reporting Station
Overcast Overcast  
Wind Chill:   Ceiling: 9000
Heat Index:   Visibility: 10mi
Dew Point:   Wind: 3mph
Humidity: 86%   Direction: 270°W
Pressure: 30"   Gusts: NA
Location:  48.11°N, 114.66°W
Report Text: KGPI 220755Z AUTO 27003KT 10SM FEW038 OVC090 07/05 A3000 RMK AO2 SLP165 T00720050
Loading
Personal Weather Stations






























Interactive Weather Map
Tropical Storm Tracking
New forecast layout! Learn more

10-Day Weather Forecast

Advertisements
Track Severe Weather on mobile